Time;durP1;ratioP1;P1;durP2;ratioP2;P2;SDS_P1;SDS_P2;PMS_P1;PMS_P2;Temp;Humidity;BMP_temperature;BMP_pressure;BME280_temperature;BME280_humidity;BME280_pressure;Samples;Min_cycle;Max_cycle;Signal;HPM_P1;HPM_P2
2022/08/16 00:00:25;;;;;;;3.15;1.80;;;21.40;64.30;;;;;;943836;151;27435;-74
2022/08/16 00:02:51;;;;;;;1.92;1.82;;;21.40;64.50;;;;;;944645;151;27341;-74
2022/08/16 00:05:18;;;;;;;1.52;1.42;;;21.30;64.60;;;;;;942682;151;27909;-74
2022/08/16 00:07:59;;;;;;;1.80;1.70;;;21.30;64.70;;;;;;943144;151;27372;-74
2022/08/16 00:10:26;;;;;;;1.87;1.77;;;21.30;64.90;;;;;;944064;151;27761;-74
2022/08/16 00:12:53;;;;;;;1.75;1.65;;;21.30;64.90;;;;;;943361;151;27445;-74
2022/08/16 00:15:22;;;;;;;1.60;1.50;;;21.30;65.00;;;;;;944209;151;27418;-74
2022/08/16 00:17:49;;;;;;;2.50;1.55;;;21.30;65.10;;;;;;943605;151;27345;-74
2022/08/16 00:20:15;;;;;;;1.80;1.70;;;21.30;65.10;;;;;;944054;151;27282;-74
2022/08/16 00:22:42;;;;;;;2.20;2.00;;;21.30;65.30;;;;;;943834;151;27403;-74
2022/08/16 00:25:09;;;;;;;2.10;1.90;;;21.20;65.40;;;;;;944645;151;27779;-74
2022/08/16 00:27:35;;;;;;;2.05;1.92;;;21.20;65.60;;;;;;943893;151;28048;-74
2022/08/16 00:30:02;;;;;;;2.42;2.22;;;21.10;65.60;;;;;;943700;149;27478;-74
2022/08/16 00:32:28;;;;;;;2.20;2.00;;;21.10;65.70;;;;;;942888;149;27421;-74
2022/08/16 00:34:55;;;;;;;2.22;2.02;;;21.10;65.90;;;;;;943075;149;27309;-74
2022/08/16 00:37:22;;;;;;;1.90;1.80;;;21.00;66.00;;;;;;942414;149;27318;-74
2022/08/16 00:39:48;;;;;;;2.10;1.90;;;21.00;66.00;;;;;;942623;149;27550;-74
2022/08/16 00:42:15;;;;;;;3.33;2.00;;;21.00;66.30;;;;;;943059;149;27330;-74
2022/08/16 00:44:41;;;;;;;1.90;1.80;;;20.90;66.50;;;;;;943146;149;27344;-74
2022/08/16 00:47:08;;;;;;;2.02;1.92;;;20.80;66.70;;;;;;941835;149;27336;-74
2022/08/16 00:49:34;;;;;;;1.90;1.80;;;20.80;66.80;;;;;;942600;149;27365;-74
2022/08/16 00:52:01;;;;;;;1.82;1.72;;;20.70;67.00;;;;;;942161;149;27381;-74
2022/08/16 00:54:28;;;;;;;2.00;1.90;;;20.70;67.10;;;;;;942778;149;28756;-74
2022/08/16 00:56:54;;;;;;;2.70;1.95;;;20.70;67.30;;;;;;942380;149;27410;-74
2022/08/16 00:59:21;;;;;;;2.27;2.08;;;20.60;67.40;;;;;;942866;149;27349;-74
2022/08/16 01:01:47;;;;;;;2.35;1.70;;;20.50;67.50;;;;;;942379;149;27314;-74
2022/08/16 01:04:14;;;;;;;2.25;2.05;;;20.50;67.80;;;;;;943723;149;27472;-74
2022/08/16 01:06:41;;;;;;;3.08;2.25;;;20.50;68.00;;;;;;943227;148;27349;-74
2022/08/16 01:09:07;;;;;;;2.30;2.15;;;20.40;68.10;;;;;;942461;149;27294;-74
2022/08/16 01:11:34;;;;;;;2.22;2.02;;;20.50;68.50;;;;;;942922;149;27332;-74
2022/08/16 01:14:06;;;;;;;2.08;1.90;;;20.40;68.50;;;;;;943781;149;27352;-74
2022/08/16 01:16:32;;;;;;;2.22;2.00;;;20.40;68.80;;;;;;942550;149;27356;-74
2022/08/16 01:19:11;;;;;;;2.50;2.30;;;20.40;69.20;;;;;;942386;148;28891;-74
2022/08/16 01:21:43;;;;;;;2.40;2.30;;;20.30;69.40;;;;;;942752;149;27427;-74
2022/08/16 01:24:12;;;;;;;2.40;2.20;;;20.30;69.40;;;;;;941171;149;27431;-73
2022/08/16 01:26:39;;;;;;;3.77;2.33;;;20.30;69.60;;;;;;943057;149;27446;-74
2022/08/16 01:29:06;;;;;;;2.40;2.20;;;20.30;69.80;;;;;;942971;148;27330;-73
2022/08/16 01:31:32;;;;;;;2.40;2.20;;;20.20;69.80;;;;;;942520;149;27373;-74
2022/08/16 01:33:59;;;;;;;2.02;1.90;;;20.20;70.00;;;;;;943364;149;27340;-73
2022/08/16 01:36:26;;;;;;;2.65;2.45;;;20.20;70.10;;;;;;943672;149;27419;-74
2022/08/16 01:38:52;;;;;;;2.33;2.22;;;20.20;70.30;;;;;;943155;149;27362;-74
2022/08/16 01:41:21;;;;;;;2.67;2.40;;;20.20;70.40;;;;;;943628;149;27478;-74
2022/08/16 01:43:48;;;;;;;2.70;2.50;;;20.20;70.40;;;;;;942243;149;27446;-74
2022/08/16 01:46:17;;;;;;;2.70;2.15;;;20.20;70.80;;;;;;943926;149;27326;-73
2022/08/16 01:48:44;;;;;;;2.50;2.30;;;20.10;70.80;;;;;;941727;149;27366;-73
2022/08/16 01:51:11;;;;;;;2.25;2.12;;;20.10;70.90;;;;;;944026;149;27437;-73
2022/08/16 01:53:37;;;;;;;2.62;2.37;;;20.10;71.00;;;;;;942340;148;27329;-74
2022/08/16 01:56:04;;;;;;;2.33;2.10;;;20.10;71.10;;;;;;927841;150;27331;-73
2022/08/16 01:58:30;;;;;;;2.65;2.45;;;20.00;71.20;;;;;;940851;149;27256;-73
2022/08/16 02:00:57;;;;;;;2.20;2.00;;;20.00;71.40;;;;;;940847;149;27406;-74
2022/08/16 02:03:23;;;;;;;2.75;2.50;;;20.00;71.60;;;;;;942253;149;27361;-73
2022/08/16 02:05:50;;;;;;;2.50;2.30;;;19.90;71.70;;;;;;941674;149;27345;-72
2022/08/16 02:08:17;;;;;;;2.25;2.15;;;19.90;71.80;;;;;;940945;149;27350;-73
2022/08/16 02:10:43;;;;;;;2.67;2.35;;;19.90;72.10;;;;;;942145;149;27442;-73
2022/08/16 02:13:10;;;;;;;2.42;2.22;;;19.80;72.30;;;;;;942717;149;27317;-72
2022/08/16 02:15:37;;;;;;;2.35;2.15;;;19.80;72.50;;;;;;941186;149;27353;-73
2022/08/16 02:18:03;;;;;;;2.58;2.37;;;19.80;72.70;;;;;;941202;149;27457;-72
2022/08/16 02:20:30;;;;;;;2.60;2.40;;;19.80;72.70;;;;;;941432;149;27475;-72
2022/08/16 02:22:56;;;;;;;3.08;2.35;;;19.70;72.70;;;;;;941878;149;27332;-73
2022/08/16 02:25:23;;;;;;;2.60;2.27;;;19.70;72.90;;;;;;940567;149;27338;-73
2022/08/16 02:27:49;;;;;;;3.15;2.08;;;19.60;73.00;;;;;;941864;149;27358;-73
2022/08/16 02:30:16;;;;;;;2.70;2.50;;;19.70;73.30;;;;;;941598;149;27377;-72
2022/08/16 02:32:43;;;;;;;2.50;2.35;;;19.60;73.30;;;;;;928892;151;27381;-73
2022/08/16 02:35:09;;;;;;;2.42;2.22;;;19.60;73.30;;;;;;927305;152;27367;-73
2022/08/16 02:37:36;;;;;;;2.60;2.40;;;19.60;73.40;;;;;;928954;154;27279;-73
2022/08/16 02:40:02;;;;;;;3.12;2.25;;;19.60;73.50;;;;;;928754;152;27322;-73
2022/08/16 02:42:29;;;;;;;2.40;2.20;;;19.50;73.50;;;;;;928939;154;27389;-73
2022/08/16 02:44:55;;;;;;;2.75;2.55;;;19.50;73.60;;;;;;928628;154;27891;-73
2022/08/16 02:47:22;;;;;;;2.80;2.60;;;19.50;73.90;;;;;;929117;152;27420;-73
2022/08/16 02:49:49;;;;;;;2.60;2.40;;;19.40;73.90;;;;;;925737;152;27352;-73
2022/08/16 02:52:15;;;;;;;3.05;2.83;;;19.40;74.10;;;;;;928833;153;27445;-73
2022/08/16 02:54:42;;;;;;;2.58;2.37;;;19.30;74.30;;;;;;927754;152;27362;-73
2022/08/16 02:57:08;;;;;;;2.70;2.50;;;19.30;74.50;;;;;;927489;153;27454;-73
2022/08/16 02:59:35;;;;;;;2.70;2.50;;;19.20;74.70;;;;;;927294;154;27347;-73
2022/08/16 03:02:02;;;;;;;3.05;2.70;;;19.20;75.00;;;;;;927397;152;27275;-73
2022/08/16 03:04:28;;;;;;;3.10;2.40;;;19.20;75.30;;;;;;929303;151;27343;-73
2022/08/16 03:06:55;;;;;;;3.17;2.45;;;19.20;75.60;;;;;;933923;151;27324;-73
2022/08/16 03:09:21;;;;;;;2.67;2.50;;;19.10;75.80;;;;;;944469;148;27349;-72
2022/08/16 03:11:48;;;;;;;2.70;2.50;;;19.10;76.00;;;;;;940577;151;27419;-73
2022/08/16 03:14:15;;;;;;;2.83;2.62;;;19.10;76.00;;;;;;929538;154;27446;-73
2022/08/16 03:16:41;;;;;;;3.70;2.83;;;19.10;76.20;;;;;;928950;152;27426;-73
2022/08/16 03:19:08;;;;;;;3.40;3.10;;;19.10;76.40;;;;;;927765;153;27365;-73
2022/08/16 03:21:34;;;;;;;2.87;2.60;;;19.10;76.50;;;;;;929342;151;27383;-73
2022/08/16 03:24:01;;;;;;;2.47;2.27;;;19.10;76.60;;;;;;928635;154;27690;-72
2022/08/16 03:26:27;;;;;;;2.98;2.77;;;19.10;76.70;;;;;;928461;154;27351;-73
2022/08/16 03:28:54;;;;;;;3.20;2.85;;;19.10;76.80;;;;;;924940;152;27372;-73
2022/08/16 03:31:21;;;;;;;4.97;2.75;;;19.10;77.00;;;;;;928775;151;27297;-73
2022/08/16 03:33:47;;;;;;;3.15;2.83;;;19.10;77.20;;;;;;925862;155;27741;-73
2022/08/16 03:36:14;;;;;;;2.77;2.58;;;19.00;77.30;;;;;;940629;149;27348;-73
2022/08/16 03:38:40;;;;;;;2.98;2.67;;;19.00;77.60;;;;;;941128;149;28373;-72
2022/08/16 03:41:07;;;;;;;3.00;2.80;;;19.00;77.80;;;;;;930865;152;27386;-72
2022/08/16 03:43:34;;;;;;;2.70;2.50;;;19.00;78.00;;;;;;940316;152;27305;-73
2022/08/16 03:46:00;;;;;;;2.92;2.72;;;19.00;78.10;;;;;;934779;151;27391;-73
2022/08/16 03:48:27;;;;;;;3.00;2.80;;;18.90;78.10;;;;;;928152;153;27438;-73
2022/08/16 03:50:53;;;;;;;3.65;3.08;;;18.90;78.20;;;;;;924193;153;27387;-73
2022/08/16 03:53:20;;;;;;;3.08;2.87;;;18.90;78.40;;;;;;923921;153;27318;-73
2022/08/16 03:55:47;;;;;;;5.03;3.55;;;18.90;78.50;;;;;;924102;155;27330;-73
2022/08/16 03:58:13;;;;;;;2.83;2.62;;;18.90;77.90;;;;;;923412;153;27361;-73
2022/08/16 04:00:40;;;;;;;3.12;2.83;;;18.90;79.00;;;;;;923783;155;27922;-73
2022/08/16 04:03:06;;;;;;;2.90;2.70;;;18.90;78.40;;;;;;931468;151;27364;-73
2022/08/16 04:05:36;;;;;;;2.83;2.62;;;18.90;79.50;;;;;;934778;151;27435;-73
2022/08/16 04:08:02;;;;;;;3.22;2.77;;;18.80;79.50;;;;;;941306;149;27439;-73
2022/08/16 04:10:29;;;;;;;2.80;2.60;;;18.80;79.80;;;;;;933416;152;27459;-73
2022/08/16 04:12:55;;;;;;;3.08;2.75;;;18.80;79.90;;;;;;923242;152;27475;-72
2022/08/16 04:15:22;;;;;;;3.08;2.77;;;18.80;80.00;;;;;;927349;154;27383;-73
2022/08/16 04:17:48;;;;;;;2.85;2.65;;;18.80;80.00;;;;;;932784;152;27339;-72
2022/08/16 04:20:16;;;;;;;3.42;3.08;;;18.80;80.10;;;;;;941150;151;27403;-73
2022/08/16 04:22:44;;;;;;;3.08;2.87;;;18.80;80.20;;;;;;940836;152;27261;-72
2022/08/16 04:25:11;;;;;;;3.70;3.40;;;18.80;80.30;;;;;;924674;155;27469;-73
2022/08/16 04:27:37;;;;;;;3.02;2.83;;;18.70;80.40;;;;;;924425;152;27375;-73
2022/08/16 04:30:04;;;;;;;3.02;2.83;;;18.70;80.70;;;;;;933625;152;27298;-73
2022/08/16 04:32:31;;;;;;;3.55;3.25;;;18.70;81.00;;;;;;940265;148;27791;-72
2022/08/16 04:34:57;;;;;;;3.47;3.12;;;18.70;81.30;;;;;;934956;150;27373;-73
2022/08/16 04:37:24;;;;;;;4.37;2.83;;;18.70;81.60;;;;;;943398;148;27438;-73
2022/08/16 04:39:50;;;;;;;3.12;2.90;;;18.70;81.80;;;;;;928038;150;27371;-73
2022/08/16 04:42:17;;;;;;;4.90;2.90;;;18.70;82.10;;;;;;938321;150;27443;-72
2022/08/16 04:44:44;;;;;;;3.40;3.10;;;18.70;82.50;;;;;;937988;150;27338;-73
2022/08/16 04:47:10;;;;;;;3.42;3.12;;;18.70;82.80;;;;;;936871;150;27326;-73
2022/08/16 04:49:37;;;;;;;3.25;3.05;;;18.70;83.20;;;;;;938248;150;27377;-72
2022/08/16 04:52:04;;;;;;;4.15;3.00;;;18.70;83.40;;;;;;936908;150;27383;-72
2022/08/16 04:54:30;;;;;;;3.52;3.22;;;18.80;83.80;;;;;;939303;150;27332;-72
2022/08/16 04:56:57;;;;;;;4.72;3.42;;;18.80;84.20;;;;;;938944;150;27334;-73
2022/08/16 04:59:23;;;;;;;3.45;3.15;;;18.90;84.60;;;;;;938133;150;27291;-73
2022/08/16 05:01:55;;;;;;;3.33;3.05;;;19.00;85.10;;;;;;943966;149;27326;-73
2022/08/16 05:04:16;;;;;;;4.28;3.17;;;19.10;86.00;;;;;;944668;148;27373;-73
2022/08/16 05:06:43;;;;;;;3.37;3.08;;;19.30;87.10;;;;;;942835;149;27483;-73
2022/08/16 05:09:10;;;;;;;3.12;2.92;;;19.50;88.30;;;;;;943617;149;27405;-73
2022/08/16 05:11:37;;;;;;;3.37;2.90;;;19.80;89.00;;;;;;944440;149;27324;-73
2022/08/16 05:14:03;;;;;;;3.55;3.27;;;20.10;89.60;;;;;;943168;149;27343;-73
2022/08/16 05:16:29;;;;;;;3.37;3.08;;;20.50;89.70;;;;;;944715;149;27748;-73
2022/08/16 05:18:56;;;;;;;2.87;2.67;;;21.00;89.30;;;;;;944400;149;27422;-73
2022/08/16 05:21:23;;;;;;;3.10;2.90;;;21.50;88.60;;;;;;944676;149;27360;-73
2022/08/16 05:23:52;;;;;;;3.42;3.12;;;22.00;87.50;;;;;;943600;149;27333;-73
2022/08/16 05:26:19;;;;;;;2.98;2.77;;;22.50;86.10;;;;;;944903;149;27430;-73
2022/08/16 05:28:45;;;;;;;2.95;2.55;;;23.00;84.70;;;;;;944602;149;27379;-73
2022/08/16 05:31:12;;;;;;;2.98;2.77;;;23.60;83.10;;;;;;943425;149;27374;-73
2022/08/16 05:33:38;;;;;;;3.30;3.00;;;24.10;81.30;;;;;;940783;149;27391;-73
2022/08/16 05:36:05;;;;;;;3.00;2.80;;;24.60;79.40;;;;;;936744;153;27410;-73
2022/08/16 05:38:32;;;;;;;3.10;2.80;;;25.10;77.40;;;;;;937226;152;27411;-74
2022/08/16 05:40:58;;;;;;;3.10;2.90;;;25.70;76.00;;;;;;943764;151;27374;-73
2022/08/16 05:43:25;;;;;;;3.70;3.12;;;26.10;74.30;;;;;;941962;151;27359;-73
2022/08/16 05:45:52;;;;;;;2.90;2.70;;;26.60;72.80;;;;;;944708;151;27421;-74
2022/08/16 05:48:18;;;;;;;3.17;2.90;;;27.10;71.30;;;;;;943948;151;27498;-74
2022/08/16 05:50:45;;;;;;;2.98;2.72;;;27.60;70.00;;;;;;944565;151;27421;-73
2022/08/16 05:53:11;;;;;;;2.90;2.70;;;28.10;68.90;;;;;;944212;151;27338;-74
2022/08/16 05:55:38;;;;;;;2.67;2.47;;;28.50;68.70;;;;;;943460;151;27429;-74
2022/08/16 05:58:04;;;;;;;2.33;2.12;;;29.00;66.90;;;;;;943107;151;27852;-74
2022/08/16 06:00:31;;;;;;;2.98;2.77;;;29.50;65.70;;;;;;944020;151;27438;-74
2022/08/16 06:02:58;;;;;;;2.83;2.60;;;30.00;64.30;;;;;;944159;151;27376;-74
2022/08/16 06:05:24;;;;;;;2.30;2.10;;;30.40;63.10;;;;;;944318;148;27463;-74
2022/08/16 06:07:51;;;;;;;2.33;2.17;;;30.90;62.20;;;;;;943627;151;27342;-74
2022/08/16 06:10:17;;;;;;;2.47;2.27;;;31.40;61.20;;;;;;944410;151;27810;-74
2022/08/16 06:12:44;;;;;;;3.90;2.45;;;31.90;60.00;;;;;;944341;151;28656;-74
2022/08/16 06:15:11;;;;;;;2.37;2.20;;;32.30;59.00;;;;;;944417;151;27444;-74
2022/08/16 06:17:37;;;;;;;2.65;2.45;;;32.80;58.20;;;;;;943196;151;27271;-74
2022/08/16 06:20:04;;;;;;;2.08;1.98;;;33.20;57.30;;;;;;943976;151;27388;-74
2022/08/16 06:22:30;;;;;;;2.30;2.10;;;33.60;56.60;;;;;;944687;151;27374;-74
2022/08/16 06:24:57;;;;;;;2.50;2.30;;;34.00;55.70;;;;;;944128;151;27497;-74
2022/08/16 06:27:24;;;;;;;2.27;2.05;;;34.40;55.30;;;;;;943457;151;27411;-74
2022/08/16 06:29:50;;;;;;;2.37;2.17;;;34.70;54.00;;;;;;943369;151;27402;-74
2022/08/16 06:32:17;;;;;;;2.10;2.00;;;35.00;53.40;;;;;;943165;151;27294;-74
2022/08/16 06:34:43;;;;;;;2.20;2.10;;;35.30;52.80;;;;;;943379;149;27482;-74
2022/08/16 06:37:10;;;;;;;2.08;1.98;;;35.60;52.30;;;;;;942773;149;27366;-74
2022/08/16 06:39:36;;;;;;;2.55;2.35;;;35.90;51.80;;;;;;943534;148;26307;-74
2022/08/16 06:42:03;;;;;;;2.20;2.10;;;36.20;51.40;;;;;;927451;150;27470;-75
2022/08/16 06:44:30;;;;;;;2.05;1.95;;;36.60;50.90;;;;;;941981;149;26333;-74
2022/08/16 06:46:56;;;;;;;2.30;2.10;;;36.90;50.30;;;;;;941651;149;26257;-75
2022/08/16 06:49:23;;;;;;;2.00;1.90;;;37.30;49.90;;;;;;940422;149;27379;-75
2022/08/16 06:51:49;;;;;;;3.40;2.10;;;37.70;49.30;;;;;;941550;149;26280;-74
2022/08/16 06:54:16;;;;;;;2.08;1.98;;;38.10;48.60;;;;;;941737;149;27270;-75
2022/08/16 06:56:43;;;;;;;2.02;1.92;;;38.50;48.10;;;;;;941995;149;26245;-75
2022/08/16 06:59:09;;;;;;;2.12;1.92;;;38.90;47.60;;;;;;940705;149;27369;-75
2022/08/16 07:01:36;;;;;;;2.08;1.98;;;39.30;47.10;;;;;;941121;149;27441;-75
2022/08/16 07:04:06;;;;;;;3.90;2.12;;;39.70;46.30;;;;;;940461;149;26297;-75
2022/08/16 07:06:32;;;;;;;7.05;2.20;;;40.10;45.50;;;;;;938844;149;26333;-75
2022/08/16 07:08:58;;;;;;;2.52;2.10;;;40.50;45.00;;;;;;941375;149;26322;-75
2022/08/16 07:11:25;;;;;;;3.27;2.12;;;40.80;44.30;;;;;;941657;149;26357;-75
2022/08/16 07:13:51;;;;;;;2.20;2.00;;;41.20;43.40;;;;;;941271;149;26288;-75
2022/08/16 07:16:19;;;;;;;1.98;1.87;;;41.50;42.80;;;;;;941631;149;26273;-75
2022/08/16 07:18:45;;;;;;;2.40;2.00;;;41.70;42.30;;;;;;940966;149;26290;-75
2022/08/16 07:21:11;;;;;;;2.62;1.75;;;41.90;41.80;;;;;;941634;149;26353;-75
2022/08/16 07:23:38;;;;;;;2.20;2.10;;;42.20;41.40;;;;;;941560;149;26261;-75
2022/08/16 07:26:04;;;;;;;2.25;1.92;;;42.50;41.10;;;;;;942023;149;26273;-75
2022/08/16 07:28:31;;;;;;;1.80;1.70;;;42.80;40.40;;;;;;941618;149;26297;-75
2022/08/16 07:31:00;;;;;;;1.82;1.72;;;43.10;40.00;;;;;;941125;149;26870;-76
2022/08/16 07:33:25;;;;;;;3.05;2.00;;;43.30;39.40;;;;;;940397;149;26214;-75
2022/08/16 07:35:51;;;;;;;2.10;2.00;;;43.60;39.10;;;;;;931149;151;26268;-75
2022/08/16 07:38:17;;;;;;;2.10;2.00;;;43.80;38.50;;;;;;927675;152;26264;-75
2022/08/16 07:40:44;;;;;;;1.98;1.87;;;44.10;38.10;;;;;;926984;152;26332;-75
2022/08/16 07:43:10;;;;;;;2.70;1.95;;;44.30;37.60;;;;;;928074;152;27783;-76
2022/08/16 07:45:37;;;;;;;2.15;1.80;;;44.50;36.90;;;;;;930030;154;26261;-76
2022/08/16 07:48:04;;;;;;;1.95;1.85;;;44.70;36.60;;;;;;928740;154;26265;-76
2022/08/16 07:50:30;;;;;;;2.77;1.98;;;44.70;36.30;;;;;;936787;151;26617;-76
2022/08/16 07:52:57;;;;;;;2.25;2.05;;;44.90;36.00;;;;;;935854;151;26361;-76
2022/08/16 07:55:23;;;;;;;1.90;1.80;;;45.00;35.50;;;;;;945495;151;26273;-76
2022/08/16 07:57:50;;;;;;;5.47;2.45;;;45.00;35.00;;;;;;928737;154;26298;-76
2022/08/16 08:00:17;;;;;;;1.95;1.85;;;45.00;34.80;;;;;;928090;154;26251;-76
2022/08/16 08:02:43;;;;;;;2.20;1.98;;;44.90;34.60;;;;;;937359;151;26344;-76
2022/08/16 08:05:10;;;;;;;2.00;1.80;;;45.00;34.70;;;;;;946504;151;26221;-76
2022/08/16 08:07:36;;;;;;;2.05;1.95;;;45.10;34.60;;;;;;937070;153;26287;-76
2022/08/16 08:10:03;;;;;;;2.02;1.80;;;45.20;34.40;;;;;;936866;153;26290;-75
2022/08/16 08:12:30;;;;;;;1.57;1.47;;;45.50;34.00;;;;;;937347;150;26398;-76
2022/08/16 08:14:56;;;;;;;1.57;1.47;;;45.60;33.50;;;;;;937403;152;26319;-77
2022/08/16 08:17:23;;;;;;;1.87;1.72;;;45.70;32.90;;;;;;937170;152;26316;-77
2022/08/16 08:19:49;;;;;;;2.50;1.80;;;45.70;32.70;;;;;;936940;152;26357;-76
2022/08/16 08:22:16;;;;;;;2.00;1.90;;;45.70;32.80;;;;;;944198;151;26267;-76
2022/08/16 08:24:42;;;;;;;1.75;1.65;;;45.70;32.20;;;;;;944239;151;26198;-77
2022/08/16 08:27:09;;;;;;;2.00;1.67;;;45.60;32.10;;;;;;944213;151;26272;-76
2022/08/16 08:29:36;;;;;;;2.47;2.08;;;45.50;32.00;;;;;;944306;151;26241;-77
2022/08/16 08:32:02;;;;;;;3.87;1.90;;;45.40;32.10;;;;;;944306;151;26284;-77
2022/08/16 08:34:29;;;;;;;2.77;2.02;;;45.40;32.10;;;;;;944568;151;26350;-76
2022/08/16 08:36:55;;;;;;;2.17;2.02;;;45.40;32.10;;;;;;944466;151;26333;-76
2022/08/16 08:39:22;;;;;;;1.98;1.87;;;45.40;31.90;;;;;;943987;151;26260;-77
2022/08/16 08:41:49;;;;;;;1.87;1.77;;;45.40;31.50;;;;;;944985;151;26372;-77
2022/08/16 08:44:15;;;;;;;2.00;1.80;;;45.20;31.30;;;;;;945390;151;26353;-76
2022/08/16 08:46:42;;;;;;;2.40;2.20;;;45.10;31.20;;;;;;943881;151;26346;-76
2022/08/16 08:49:08;;;;;;;2.42;2.30;;;44.90;31.10;;;;;;944000;151;26411;-76
2022/08/16 08:51:37;;;;;;;3.22;2.33;;;44.50;31.20;;;;;;944866;151;26302;-77
2022/08/16 08:54:03;;;;;;;3.15;2.30;;;44.30;31.90;;;;;;943832;151;26329;-76
2022/08/16 08:56:32;;;;;;;2.52;2.33;;;44.10;31.40;;;;;;944825;151;26354;-76
2022/08/16 08:58:57;;;;;;;3.05;2.50;;;43.90;31.30;;;;;;943796;151;26301;-76
2022/08/16 09:01:25;;;;;;;2.55;2.35;;;43.60;31.40;;;;;;943520;151;26338;-77
2022/08/16 09:03:51;;;;;;;1.92;1.82;;;43.50;31.70;;;;;;944467;151;26705;-77
2022/08/16 09:06:17;;;;;;;3.75;1.90;;;43.30;32.00;;;;;;942970;151;26364;-76
2022/08/16 09:08:44;;;;;;;1.82;1.72;;;43.40;32.40;;;;;;944044;151;26281;-77
2022/08/16 09:11:10;;;;;;;1.85;1.75;;;43.60;32.50;;;;;;944437;151;26248;-77
2022/08/16 09:13:37;;;;;;;1.80;1.70;;;44.00;32.60;;;;;;944535;149;26206;-77
2022/08/16 09:16:04;;;;;;;2.00;1.77;;;44.50;32.30;;;;;;927773;154;26240;-77
2022/08/16 09:18:31;;;;;;;2.20;2.00;;;44.90;31.90;;;;;;940101;151;26341;-77
2022/08/16 09:20:58;;;;;;;1.85;1.75;;;45.40;31.40;;;;;;930510;153;26370;-77
2022/08/16 09:23:24;;;;;;;1.70;1.60;;;45.80;30.90;;;;;;929109;152;26382;-77
2022/08/16 09:25:50;;;;;;;2.17;1.52;;;46.20;30.30;;;;;;929250;151;26255;-77
2022/08/16 09:28:17;;;;;;;1.50;1.40;;;46.60;30.00;;;;;;944780;148;26237;-77
2022/08/16 09:30:43;;;;;;;1.77;1.67;;;46.90;29.80;;;;;;944819;151;26190;-77
2022/08/16 09:33:10;;;;;;;1.70;1.60;;;47.00;29.40;;;;;;936942;151;26276;-77
2022/08/16 09:35:36;;;;;;;1.80;1.70;;;47.10;29.00;;;;;;929487;151;26415;-77
2022/08/16 09:38:03;;;;;;;2.12;2.02;;;47.00;28.10;;;;;;927821;154;26378;-77
2022/08/16 09:40:31;;;;;;;1.75;1.65;;;46.70;28.40;;;;;;927177;152;26428;-77
2022/08/16 09:42:57;;;;;;;2.10;2.00;;;46.40;28.60;;;;;;928039;153;26183;-77
2022/08/16 09:45:24;;;;;;;1.70;1.60;;;46.10;28.90;;;;;;935872;151;26695;-77
2022/08/16 09:47:53;;;;;;;1.77;1.67;;;45.90;29.00;;;;;;937688;150;26272;-77
2022/08/16 09:50:16;;;;;;;3.80;1.55;;;45.80;29.00;;;;;;936262;152;26260;-77
2022/08/16 09:52:43;;;;;;;1.57;1.47;;;45.70;29.00;;;;;;935463;151;26242;-76
2022/08/16 09:55:09;;;;;;;1.70;1.60;;;45.60;28.90;;;;;;927202;154;26607;-77
2022/08/16 09:57:36;;;;;;;1.90;1.80;;;45.30;28.80;;;;;;944804;151;26306;-77
2022/08/16 10:00:06;;;;;;;1.80;1.70;;;45.00;28.70;;;;;;936482;151;26266;-76
2022/08/16 10:02:32;;;;;;;1.80;1.70;;;44.70;28.70;;;;;;944257;148;26257;-76
2022/08/16 10:04:58;;;;;;;2.22;2.00;;;44.20;28.60;;;;;;928071;154;26289;-77
2022/08/16 10:07:25;;;;;;;1.62;1.52;;;43.70;28.90;;;;;;939823;151;26349;-77
2022/08/16 10:09:51;;;;;;;2.17;1.95;;;43.10;29.10;;;;;;929394;152;26242;-76
2022/08/16 10:15:03;;;;;;;2.50;2.30;;;42.10;29.70;;;;;;929787;154;26402;-77
2022/08/16 10:17:29;;;;;;;2.20;2.05;;;41.70;30.00;;;;;;929461;154;26310;-77
2022/08/16 10:19:56;;;;;;;2.85;1.90;;;41.40;30.10;;;;;;933972;151;26242;-77
2022/08/16 10:22:22;;;;;;;2.02;1.77;;;41.20;30.30;;;;;;925729;152;26243;-76
2022/08/16 10:24:49;;;;;;;1.72;1.62;;;40.90;30.40;;;;;;940102;151;26428;-77
2022/08/16 10:27:16;;;;;;;1.80;1.70;;;40.70;30.40;;;;;;929940;152;26281;-77
2022/08/16 10:29:42;;;;;;;1.87;1.77;;;40.40;30.30;;;;;;929805;152;26328;-77
2022/08/16 10:32:09;;;;;;;2.02;1.80;;;40.20;30.50;;;;;;929170;152;26339;-76
2022/08/16 10:34:35;;;;;;;2.00;1.90;;;39.90;30.60;;;;;;932049;151;27516;-76
2022/08/16 10:37:02;;;;;;;1.90;1.80;;;39.60;30.60;;;;;;927871;149;27576;-77
2022/08/16 10:39:28;;;;;;;2.65;1.80;;;39.30;30.90;;;;;;942546;150;27367;-77
2022/08/16 10:41:55;;;;;;;1.98;1.87;;;39.00;31.30;;;;;;942614;149;27487;-77
2022/08/16 10:44:22;;;;;;;2.10;2.00;;;38.70;31.40;;;;;;943197;149;27384;-76
2022/08/16 10:46:48;;;;;;;1.90;1.80;;;38.40;31.80;;;;;;943634;149;27733;-77
2022/08/16 10:49:15;;;;;;;2.10;1.82;;;38.20;31.90;;;;;;942780;149;27343;-77
2022/08/16 10:51:41;;;;;;;2.22;2.12;;;38.00;32.00;;;;;;943305;149;27726;-77
2022/08/16 10:54:08;;;;;;;1.95;1.85;;;37.80;32.10;;;;;;943415;149;27452;-76
2022/08/16 10:56:35;;;;;;;1.70;1.52;;;37.70;32.30;;;;;;943176;149;27323;-76
2022/08/16 10:59:01;;;;;;;2.55;1.90;;;37.50;32.50;;;;;;942259;149;27335;-76
2022/08/16 11:01:28;;;;;;;2.22;2.02;;;37.40;32.70;;;;;;943937;149;27427;-76
2022/08/16 11:03:54;;;;;;;1.90;1.80;;;37.20;32.80;;;;;;943312;149;27426;-77
2022/08/16 11:06:21;;;;;;;2.12;1.90;;;37.00;33.00;;;;;;943436;149;27378;-76
2022/08/16 11:08:48;;;;;;;2.10;1.60;;;36.90;33.10;;;;;;943072;149;27447;-75
2022/08/16 11:11:14;;;;;;;2.10;1.60;;;36.70;33.00;;;;;;942877;149;27423;-76
2022/08/16 11:13:41;;;;;;;1.80;1.70;;;36.60;33.20;;;;;;943384;149;27389;-76
2022/08/16 11:16:07;;;;;;;2.00;1.80;;;36.50;33.40;;;;;;943702;149;27451;-76
2022/08/16 11:18:34;;;;;;;1.60;1.50;;;36.30;33.50;;;;;;942902;149;27424;-76
2022/08/16 11:21:00;;;;;;;1.80;1.70;;;36.20;33.60;;;;;;942868;149;27418;-75
2022/08/16 11:23:27;;;;;;;1.60;1.50;;;36.10;33.80;;;;;;943329;149;27339;-76
2022/08/16 11:25:54;;;;;;;1.92;1.72;;;35.90;34.00;;;;;;943812;149;27318;-76
2022/08/16 11:28:20;;;;;;;1.90;1.80;;;35.70;34.20;;;;;;942674;149;27331;-76
2022/08/16 11:30:47;;;;;;;3.22;1.80;;;35.60;34.60;;;;;;943616;149;27446;-76
2022/08/16 11:33:13;;;;;;;1.95;1.62;;;35.40;34.90;;;;;;943088;149;27458;-76
2022/08/16 11:35:40;;;;;;;2.70;2.30;;;35.40;35.20;;;;;;944113;149;27376;-76
2022/08/16 11:38:07;;;;;;;2.55;1.87;;;35.40;35.30;;;;;;942410;149;27406;-76
2022/08/16 11:40:36;;;;;;;2.60;2.40;;;35.30;35.30;;;;;;941347;149;27432;-76
2022/08/16 11:43:02;;;;;;;2.00;1.90;;;35.30;35.40;;;;;;942824;149;27357;-76
2022/08/16 11:45:29;;;;;;;2.05;1.95;;;35.30;35.40;;;;;;942084;149;27386;-76
2022/08/16 11:47:55;;;;;;;1.80;1.70;;;35.30;35.40;;;;;;943395;149;27651;-76
2022/08/16 11:50:23;;;;;;;2.10;1.95;;;35.30;35.60;;;;;;943018;149;27890;-76
2022/08/16 11:52:48;;;;;;;2.70;1.92;;;35.30;35.50;;;;;;942841;149;27327;-76
2022/08/16 11:55:15;;;;;;;1.80;1.70;;;35.30;35.50;;;;;;942604;149;27461;-76
2022/08/16 11:57:42;;;;;;;2.30;2.10;;;35.20;35.50;;;;;;943723;149;27358;-76
2022/08/16 12:00:10;;;;;;;1.85;1.75;;;35.20;35.60;;;;;;942537;149;27399;-76
2022/08/16 12:02:35;;;;;;;2.33;2.12;;;35.20;35.50;;;;;;943287;149;27460;-76
2022/08/16 12:05:02;;;;;;;2.20;1.90;;;35.10;35.50;;;;;;943460;149;27299;-75
2022/08/16 12:07:28;;;;;;;1.90;1.80;;;35.10;35.60;;;;;;943212;149;27327;-76
2022/08/16 12:09:55;;;;;;;2.25;2.05;;;35.00;35.60;;;;;;943083;149;27350;-76
2022/08/16 12:12:22;;;;;;;2.05;1.95;;;34.90;35.60;;;;;;943254;149;27768;-76
2022/08/16 12:14:48;;;;;;;2.50;2.00;;;34.90;35.80;;;;;;943579;149;27255;-75
2022/08/16 12:17:15;;;;;;;1.95;1.85;;;34.80;35.80;;;;;;944240;149;27665;-75
2022/08/16 12:19:41;;;;;;;1.85;1.75;;;34.70;35.90;;;;;;942969;149;27342;-76
2022/08/16 12:22:08;;;;;;;2.30;2.00;;;34.70;35.90;;;;;;943390;149;27362;-75
2022/08/16 12:24:34;;;;;;;2.00;1.90;;;34.60;36.00;;;;;;943465;149;27496;-76
2022/08/16 12:27:01;;;;;;;2.00;1.90;;;34.50;36.00;;;;;;943337;149;27323;-75
2022/08/16 12:29:28;;;;;;;2.40;2.12;;;34.50;36.10;;;;;;942384;149;27335;-75
2022/08/16 12:31:54;;;;;;;2.10;1.90;;;34.40;36.10;;;;;;943254;149;27386;-75
2022/08/16 12:34:21;;;;;;;2.05;1.95;;;34.30;36.20;;;;;;944954;149;27948;-76
2022/08/16 12:36:47;;;;;;;3.00;1.95;;;34.20;36.50;;;;;;943195;149;27356;-75
2022/08/16 12:39:16;;;;;;;2.95;2.05;;;34.10;36.70;;;;;;943312;149;27398;-75
2022/08/16 12:41:44;;;;;;;1.98;1.87;;;34.00;36.60;;;;;;943481;149;27411;-75
2022/08/16 12:44:07;;;;;;;1.90;1.80;;;34.00;36.70;;;;;;942298;149;27471;-75
2022/08/16 12:46:34;;;;;;;2.72;2.17;;;34.00;36.80;;;;;;943154;149;27426;-75